Time;durP1;ratioP1;P1;durP2;ratioP2;P2;SDS_P1;SDS_P2;PMS_P1;PMS_P2;Temp;Humidity;BMP_temperature;BMP_pressure;BME280_temperature;BME280_humidity;BME280_pressure;Samples;Min_cycle;Max_cycle;Signal;HPM_P1;HPM_P2
2022/06/24 00:00:10;;;;;;;6.80;2.50;;;17.90;99.90;;;;;;5088076;28;20071;-66
2022/06/24 00:02:37;;;;;;;8.73;1.63;;;17.90;99.90;;;;;;5079386;28;20032;-66
2022/06/24 00:05:07;;;;;;;9.35;2.28;;;18.00;99.90;;;;;;5066480;28;20449;-66
2022/06/24 00:07:47;;;;;;;8.33;2.10;;;18.00;99.90;;;;;;5083749;28;20047;-66
2022/06/24 00:10:15;;;;;;;6.57;1.90;;;17.90;99.90;;;;;;5077876;28;20025;-67
2022/06/24 00:12:40;;;;;;;7.57;1.88;;;17.90;99.90;;;;;;5085366;28;20082;-67
2022/06/24 00:15:09;;;;;;;7.38;1.90;;;17.80;99.90;;;;;;5085398;28;20060;-66
2022/06/24 00:17:35;;;;;;;5.68;2.00;;;17.80;99.90;;;;;;5068139;28;20066;-67
2022/06/24 00:20:15;;;;;;;9.57;2.17;;;17.70;99.90;;;;;;5071673;28;20082;-67
2022/06/24 00:22:46;;;;;;;5.13;2.10;;;17.60;99.90;;;;;;5088136;28;20047;-66
2022/06/24 00:25:14;;;;;;;8.45;2.28;;;17.60;99.90;;;;;;5088049;28;20115;-67
2022/06/24 00:27:42;;;;;;;6.82;2.05;;;17.60;99.90;;;;;;5081912;28;20032;-67
2022/06/24 00:30:15;;;;;;;6.38;2.10;;;17.60;99.90;;;;;;5068802;28;20547;-67
2022/06/24 00:32:42;;;;;;;8.30;2.17;;;17.60;99.90;;;;;;5067322;28;20064;-67
2022/06/24 00:35:12;;;;;;;5.88;2.00;;;17.60;99.90;;;;;;5067708;28;20449;-67
2022/06/24 00:37:41;;;;;;;6.60;2.55;;;17.60;99.90;;;;;;5067898;28;20036;-67
2022/06/24 00:40:09;;;;;;;10.38;2.60;;;17.50;99.90;;;;;;5081971;28;20035;-67
2022/06/24 00:42:41;;;;;;;12.10;2.20;;;17.40;99.90;;;;;;5084458;28;20024;-68
2022/06/24 00:45:26;;;;;;;5.93;2.40;;;17.40;99.90;;;;;;5069426;28;20029;-67
2022/06/24 00:47:53;;;;;;;10.13;2.40;;;17.40;99.90;;;;;;5073717;28;20354;-68
2022/06/24 00:50:31;;;;;;;9.98;3.10;;;17.40;99.90;;;;;;5069156;28;20044;-67
2022/06/24 00:52:59;;;;;;;13.30;2.83;;;17.40;99.90;;;;;;5069399;28;20787;-68
2022/06/24 00:55:30;;;;;;;5.93;3.00;;;17.40;99.90;;;;;;5075902;28;20036;-68
2022/06/24 00:57:58;;;;;;;9.70;3.25;;;17.50;99.90;;;;;;5071189;28;20118;-68
2022/06/24 01:00:26;;;;;;;8.23;2.95;;;17.40;99.90;;;;;;5071819;28;20072;-67
2022/06/24 01:03:05;;;;;;;11.23;3.58;;;17.40;99.90;;;;;;5069199;28;20025;-68
2022/06/24 01:05:32;;;;;;;11.27;3.47;;;17.30;99.90;;;;;;5071531;28;20038;-68
2022/06/24 01:08:04;;;;;;;11.38;3.92;;;17.30;99.90;;;;;;5071182;28;20021;-68
2022/06/24 01:10:30;;;;;;;11.10;3.75;;;17.30;99.90;;;;;;5075265;28;20040;-68
2022/06/24 01:12:56;;;;;;;11.35;4.30;;;17.30;99.90;;;;;;5071379;28;20058;-68
2022/06/24 01:15:21;;;;;;;14.27;4.90;;;17.40;99.90;;;;;;5071947;28;20412;-68
2022/06/24 01:17:47;;;;;;;12.02;3.85;;;17.40;99.90;;;;;;5091420;28;20024;-68
2022/06/24 01:20:13;;;;;;;12.68;4.50;;;17.30;99.90;;;;;;5086763;28;20542;-68
2022/06/24 01:22:40;;;;;;;11.05;4.35;;;17.40;99.90;;;;;;5070952;28;20070;-67
2022/06/24 01:25:08;;;;;;;9.00;4.38;;;17.40;99.90;;;;;;5071356;28;20025;-67
2022/06/24 01:27:34;;;;;;;14.82;4.70;;;17.30;99.90;;;;;;5071698;28;20039;-68
2022/06/24 01:29:59;;;;;;;11.38;3.95;;;17.40;99.90;;;;;;5071249;28;20582;-67
2022/06/24 01:32:25;;;;;;;9.52;4.00;;;17.40;99.90;;;;;;5086642;28;20036;-67
2022/06/24 01:34:51;;;;;;;10.30;3.85;;;17.30;99.90;;;;;;5070068;28;20025;-67
2022/06/24 01:37:17;;;;;;;9.45;3.22;;;17.40;99.90;;;;;;5071140;28;20086;-68
2022/06/24 01:39:43;;;;;;;10.38;3.95;;;17.40;99.90;;;;;;5070087;28;20472;-68
2022/06/24 01:42:08;;;;;;;8.10;3.05;;;17.50;99.90;;;;;;5071516;28;20075;-67
2022/06/24 01:44:35;;;;;;;8.52;3.05;;;17.60;99.90;;;;;;5074512;28;20111;-68
2022/06/24 01:47:01;;;;;;;6.03;2.85;;;17.60;99.90;;;;;;5071236;28;20094;-67
2022/06/24 01:49:27;;;;;;;9.68;2.67;;;17.50;99.90;;;;;;5070794;28;20043;-68
2022/06/24 01:51:55;;;;;;;8.32;3.58;;;17.50;99.90;;;;;;5086817;28;20024;-68
2022/06/24 01:54:21;;;;;;;11.75;3.10;;;17.50;99.90;;;;;;5091585;28;20082;-67
2022/06/24 01:56:47;;;;;;;12.02;3.45;;;17.40;99.90;;;;;;5073335;28;20473;-68
2022/06/24 01:59:14;;;;;;;9.70;2.83;;;17.50;99.90;;;;;;5070039;28;20042;-67
2022/06/24 02:01:40;;;;;;;7.88;2.63;;;17.40;99.90;;;;;;5070192;28;20044;-68
2022/06/24 02:04:06;;;;;;;9.77;2.33;;;17.40;99.90;;;;;;5087113;28;20036;-68
2022/06/24 02:06:32;;;;;;;8.35;2.03;;;17.40;99.90;;;;;;5076817;28;20055;-67
2022/06/24 02:08:58;;;;;;;6.40;2.20;;;17.40;99.90;;;;;;5089428;28;20032;-68
2022/06/24 02:14:09;;;;;;;9.60;2.28;;;17.50;99.90;;;;;;5070998;28;20035;-68
2022/06/24 02:16:36;;;;;;;11.10;2.47;;;17.60;99.90;;;;;;5071610;28;20089;-68
2022/06/24 02:19:03;;;;;;;9.23;2.38;;;17.60;99.90;;;;;;5070019;28;20071;-68
2022/06/24 02:21:28;;;;;;;9.13;2.58;;;17.60;99.90;;;;;;5070611;28;20039;-68
2022/06/24 02:23:54;;;;;;;11.23;2.42;;;17.70;99.90;;;;;;5069928;28;20029;-68
2022/06/24 02:26:21;;;;;;;7.57;2.53;;;17.70;99.90;;;;;;5070666;28;20113;-68
2022/06/24 02:28:46;;;;;;;11.63;2.20;;;17.70;99.90;;;;;;5069632;28;20060;-68
2022/06/24 02:31:13;;;;;;;7.32;2.60;;;17.80;99.90;;;;;;5072076;28;20032;-68
2022/06/24 02:33:39;;;;;;;7.70;2.50;;;17.80;99.90;;;;;;5073469;28;20036;-68
2022/06/24 02:36:06;;;;;;;7.00;2.53;;;17.80;99.90;;;;;;5068891;28;20111;-68
2022/06/24 02:38:32;;;;;;;7.63;2.38;;;17.80;99.90;;;;;;5070357;28;20021;-68
2022/06/24 02:40:58;;;;;;;5.93;2.25;;;17.80;99.90;;;;;;5072861;28;20040;-68
2022/06/24 02:43:35;;;;;;;6.43;2.58;;;17.80;99.90;;;;;;5069767;28;20537;-68
2022/06/24 02:46:06;;;;;;;6.30;2.50;;;17.80;99.90;;;;;;5070255;28;20059;-67
2022/06/24 02:48:34;;;;;;;8.25;2.90;;;17.80;99.90;;;;;;5069661;28;20449;-68
2022/06/24 02:51:05;;;;;;;4.45;2.20;;;17.70;99.90;;;;;;5078372;28;20101;-68
2022/06/24 02:53:31;;;;;;;;;;;17.70;99.90;;;;;;5070637;28;20032;-68
2022/06/24 02:56:02;;;;;;;9.95;2.70;;;17.60;99.90;;;;;;5068835;28;19913;-68
2022/06/24 02:58:28;;;;;;;;;;;17.60;99.90;;;;;;5069624;28;20056;-67
2022/06/24 03:00:54;;;;;;;6.20;2.53;;;17.60;99.90;;;;;;5068779;28;20061;-68
2022/06/24 03:03:22;;;;;;;9.85;2.53;;;17.70;99.90;;;;;;5069545;28;20059;-68
2022/06/24 03:05:48;;;;;;;10.82;2.42;;;17.70;99.90;;;;;;5068466;28;20078;-68
2022/06/24 03:08:15;;;;;;;8.25;2.92;;;17.70;99.90;;;;;;5069883;28;20127;-67
2022/06/24 03:10:42;;;;;;;7.50;2.47;;;17.70;99.90;;;;;;5073830;28;20036;-68
2022/06/24 03:13:08;;;;;;;7.63;2.53;;;17.60;99.90;;;;;;5089498;28;20035;-67
2022/06/24 03:15:34;;;;;;;7.68;2.83;;;17.60;99.90;;;;;;5069551;28;20469;-68
2022/06/24 03:18:00;;;;;;;6.03;2.42;;;17.60;99.90;;;;;;5069714;28;20055;-68
2022/06/24 03:20:26;;;;;;;6.80;3.10;;;17.60;99.90;;;;;;5071499;28;20072;-68
2022/06/24 03:22:51;;;;;;;9.95;3.08;;;17.70;99.90;;;;;;5109229;28;20027;-68
2022/06/24 03:25:17;;;;;;;7.25;3.10;;;17.70;99.90;;;;;;5089495;28;20027;-68
2022/06/24 03:27:44;;;;;;;6.35;2.83;;;17.70;99.90;;;;;;5068809;28;20032;-68
2022/06/24 03:30:11;;;;;;;7.10;3.13;;;17.70;99.90;;;;;;5068664;28;20464;-68
2022/06/24 03:32:37;;;;;;;8.82;3.20;;;17.70;99.90;;;;;;5069641;28;20036;-68
2022/06/24 03:35:04;;;;;;;7.38;2.88;;;17.60;99.90;;;;;;5067752;28;20672;-68
2022/06/24 03:37:30;;;;;;;10.45;3.00;;;17.50;99.90;;;;;;5072270;28;20054;-68
2022/06/24 03:39:57;;;;;;;10.25;3.00;;;17.60;99.90;;;;;;5085419;28;20032;-68
2022/06/24 03:42:22;;;;;;;10.82;3.30;;;17.60;99.90;;;;;;5069249;28;20013;-68
2022/06/24 03:44:48;;;;;;;14.73;2.85;;;17.60;99.90;;;;;;5067771;28;20443;-68
2022/06/24 03:47:13;;;;;;;7.57;3.13;;;17.60;99.90;;;;;;5070486;28;20040;-68
2022/06/24 03:49:39;;;;;;;16.90;3.20;;;17.50;99.90;;;;;;5068550;28;20029;-68
2022/06/24 03:52:05;;;;;;;7.28;3.38;;;17.50;99.90;;;;;;5067837;28;20099;-68
2022/06/24 03:54:31;;;;;;;8.73;3.38;;;17.50;99.90;;;;;;5068522;28;20028;-68
2022/06/24 03:56:57;;;;;;;12.10;3.60;;;17.60;99.90;;;;;;5067661;28;20492;-68
2022/06/24 03:59:23;;;;;;;6.30;3.47;;;17.70;99.90;;;;;;5068828;28;20056;-68
2022/06/24 04:01:48;;;;;;;10.27;3.53;;;17.70;99.90;;;;;;5069163;28;20024;-68
2022/06/24 04:04:14;;;;;;;19.77;3.40;;;17.70;99.90;;;;;;5088612;28;20028;-67
2022/06/24 04:06:40;;;;;;;17.88;4.10;;;17.80;99.90;;;;;;5071387;28;20081;-67
2022/06/24 04:09:05;;;;;;;11.57;3.85;;;17.80;99.90;;;;;;5084635;28;20032;-68
2022/06/24 04:11:31;;;;;;;9.55;3.80;;;17.70;99.90;;;;;;5085985;28;20042;-68
2022/06/24 04:14:00;;;;;;;11.60;3.85;;;17.70;99.90;;;;;;5103681;28;20084;-67
2022/06/24 04:16:25;;;;;;;9.43;3.95;;;17.70;99.90;;;;;;5082396;28;20021;-68
2022/06/24 04:18:51;;;;;;;10.02;3.85;;;17.70;99.90;;;;;;5067086;28;20041;-68
2022/06/24 04:21:18;;;;;;;9.77;3.92;;;17.70;99.90;;;;;;5079933;28;20129;-67
2022/06/24 04:23:45;;;;;;;9.40;3.92;;;17.70;99.90;;;;;;5071078;28;20041;-68
2022/06/24 04:26:11;;;;;;;12.55;4.57;;;17.70;99.90;;;;;;5067254;28;20040;-68
2022/06/24 04:28:38;;;;;;;9.93;4.30;;;17.70;99.90;;;;;;5068482;28;20028;-67
2022/06/24 04:31:04;;;;;;;7.95;4.07;;;17.70;99.90;;;;;;5067301;28;20097;-67
2022/06/24 04:33:30;;;;;;;8.50;4.10;;;17.60;99.90;;;;;;5068631;28;20033;-68
2022/06/24 04:35:56;;;;;;;8.32;4.35;;;17.60;99.90;;;;;;5067418;28;20378;-68
2022/06/24 04:38:22;;;;;;;10.70;4.47;;;17.60;99.90;;;;;;5068476;28;20033;-67
2022/06/24 04:40:47;;;;;;;7.13;3.70;;;17.60;99.90;;;;;;5067003;28;20463;-67
2022/06/24 04:43:13;;;;;;;11.93;3.65;;;17.70;99.90;;;;;;5067943;28;20095;-67
2022/06/24 04:45:39;;;;;;;9.23;4.30;;;17.80;99.90;;;;;;5068329;28;20116;-68
2022/06/24 04:48:05;;;;;;;13.55;4.70;;;17.90;99.90;;;;;;5067507;28;20143;-68
2022/06/24 04:50:32;;;;;;;7.63;3.78;;;17.80;99.90;;;;;;5070449;28;20120;-68
2022/06/24 04:52:58;;;;;;;7.45;3.78;;;17.80;99.90;;;;;;5067015;28;20025;-67
2022/06/24 04:55:23;;;;;;;11.07;3.65;;;17.80;99.90;;;;;;5081403;28;20114;-68
2022/06/24 04:57:49;;;;;;;11.93;4.00;;;17.80;99.90;;;;;;5067897;28;20112;-67
2022/06/24 05:00:15;;;;;;;13.20;4.47;;;18.00;99.90;;;;;;5066308;28;20074;-67
2022/06/24 05:02:41;;;;;;;8.25;4.22;;;18.00;99.90;;;;;;5067934;28;20040;-67
2022/06/24 05:05:09;;;;;;;253.88;9.35;;;18.10;99.90;;;;;;5068028;28;20539;-68
2022/06/24 05:07:35;;;;;;;9.63;4.07;;;18.10;99.90;;;;;;5067774;28;20036;-67
2022/06/24 05:10:01;;;;;;;9.20;4.13;;;18.10;99.90;;;;;;5067261;28;20089;-68
2022/06/24 05:12:27;;;;;;;16.00;4.85;;;18.20;99.90;;;;;;5071224;28;20035;-67
2022/06/24 05:14:53;;;;;;;16.23;5.50;;;18.20;99.90;;;;;;5067644;28;20046;-68
2022/06/24 05:17:19;;;;;;;10.50;4.72;;;18.20;99.90;;;;;;5068080;28;20104;-67
2022/06/24 05:19:44;;;;;;;6.25;4.00;;;18.20;99.90;;;;;;5068007;28;20036;-67
2022/06/24 05:22:10;;;;;;;11.13;4.63;;;18.20;99.90;;;;;;5066233;28;20025;-67
2022/06/24 05:24:36;;;;;;;14.57;4.97;;;18.20;99.90;;;;;;5068105;28;20031;-67
2022/06/24 05:27:02;;;;;;;10.15;4.75;;;18.30;99.90;;;;;;5066662;28;20025;-67
2022/06/24 05:29:28;;;;;;;18.33;5.80;;;18.20;99.90;;;;;;5067779;28;20049;-67
2022/06/24 05:31:53;;;;;;;11.40;5.15;;;18.20;99.90;;;;;;5066900;28;20028;-67
2022/06/24 05:34:19;;;;;;;9.68;4.63;;;18.20;99.90;;;;;;5080119;28;20065;-67
2022/06/24 05:36:45;;;;;;;12.35;4.63;;;18.20;99.90;;;;;;5071309;28;20036;-67
2022/06/24 05:39:11;;;;;;;15.05;4.57;;;18.20;99.90;;;;;;5069043;28;20032;-67
2022/06/24 05:41:40;;;;;;;8.98;4.60;;;18.20;99.90;;;;;;5070957;28;20056;-67
2022/06/24 05:44:06;;;;;;;13.73;4.75;;;18.30;99.90;;;;;;5070768;28;20032;-67
2022/06/24 05:46:32;;;;;;;8.32;4.95;;;18.40;99.90;;;;;;5072804;28;20033;-67
2022/06/24 05:48:58;;;;;;;9.95;4.55;;;18.50;99.90;;;;;;5070879;28;20101;-67
2022/06/24 05:51:23;;;;;;;11.05;4.68;;;18.70;99.90;;;;;;5084154;28;20028;-67
2022/06/24 05:56:33;;;;;;;13.13;4.47;;;18.90;99.90;;;;;;5070715;28;20499;-67
2022/06/24 05:58:59;;;;;;;10.65;4.07;;;18.90;99.90;;;;;;5070472;28;20041;-67
2022/06/24 06:01:26;;;;;;;15.60;4.63;;;19.00;99.90;;;;;;5076893;28;20477;-67
2022/06/24 06:03:51;;;;;;;8.65;3.90;;;19.10;99.90;;;;;;5070208;28;20461;-67
2022/06/24 06:06:17;;;;;;;10.43;4.75;;;19.10;99.90;;;;;;5074372;28;20028;-66
2022/06/24 06:08:43;;;;;;;9.57;4.20;;;19.10;99.90;;;;;;5070580;28;20529;-67
2022/06/24 06:11:22;;;;;;;10.07;4.50;;;19.00;99.90;;;;;;5080185;28;20097;-66
2022/06/24 06:13:51;;;;;;;10.27;4.22;;;19.00;99.90;;;;;;5091509;28;20040;-67
2022/06/24 06:16:17;;;;;;;12.43;4.10;;;19.00;99.90;;;;;;5077204;28;20492;-67
2022/06/24 06:18:44;;;;;;;11.63;4.07;;;19.00;99.90;;;;;;5070313;28;20043;-67
2022/06/24 06:21:10;;;;;;;13.23;4.47;;;19.10;99.90;;;;;;5069474;28;20507;-66
2022/06/24 06:23:37;;;;;;;12.00;4.47;;;19.10;99.90;;;;;;5070066;28;20108;-66
2022/06/24 06:26:05;;;;;;;12.75;4.18;;;19.20;99.90;;;;;;5069483;28;20036;-66
2022/06/24 06:28:31;;;;;;;18.13;4.25;;;19.50;99.90;;;;;;5070708;28;20101;-66
2022/06/24 06:30:58;;;;;;;11.90;4.28;;;19.70;99.90;;;;;;5069704;28;20443;-66
2022/06/24 06:33:25;;;;;;;10.88;3.90;;;19.80;99.90;;;;;;5070370;28;20074;-66
2022/06/24 06:35:50;;;;;;;18.30;5.10;;;19.70;99.90;;;;;;5069388;28;20029;-66
2022/06/24 06:38:16;;;;;;;13.05;4.50;;;19.80;99.90;;;;;;5073041;28;20031;-66
2022/06/24 06:40:42;;;;;;;10.18;3.60;;;19.90;99.90;;;;;;5101372;28;20028;-66
2022/06/24 06:43:09;;;;;;;11.65;4.00;;;20.00;99.90;;;;;;5069372;28;20107;-66
2022/06/24 06:45:38;;;;;;;14.40;4.15;;;20.30;99.90;;;;;;5081823;28;20043;-66
2022/06/24 06:48:05;;;;;;;13.88;3.63;;;20.70;99.90;;;;;;5087835;28;20032;-66
2022/06/24 06:50:31;;;;;;;12.13;4.07;;;21.00;99.90;;;;;;5080417;28;20042;-66
2022/06/24 06:52:57;;;;;;;12.57;4.50;;;21.10;99.90;;;;;;5089737;28;20081;-66
2022/06/24 06:55:23;;;;;;;8.90;3.63;;;21.30;99.90;;;;;;5080920;28;20032;-65
2022/06/24 06:57:50;;;;;;;14.93;4.43;;;21.30;99.90;;;;;;5082950;28;20032;-66
2022/06/24 07:00:17;;;;;;;13.15;4.22;;;21.30;99.90;;;;;;5085792;28;20278;-65
2022/06/24 07:02:42;;;;;;;11.40;4.07;;;21.10;99.90;;;;;;5080476;28;20028;-65
2022/06/24 07:05:08;;;;;;;11.38;4.38;;;21.10;99.90;;;;;;5089215;28;20031;-66
2022/06/24 07:07:34;;;;;;;13.95;4.82;;;21.10;99.90;;;;;;5091124;28;20027;-65
2022/06/24 07:10:00;;;;;;;11.73;4.35;;;21.00;99.90;;;;;;5071516;28;20036;-65
2022/06/24 07:12:26;;;;;;;14.27;4.70;;;20.90;99.90;;;;;;5069094;28;20550;-65
2022/06/24 07:14:52;;;;;;;10.52;4.68;;;20.80;99.90;;;;;;5070745;28;20035;-65
2022/06/24 07:17:19;;;;;;;10.75;4.43;;;20.70;99.90;;;;;;5068848;28;20060;-65
2022/06/24 07:19:46;;;;;;;10.55;4.25;;;20.70;99.90;;;;;;5069212;28;20044;-65
2022/06/24 07:22:12;;;;;;;12.07;4.47;;;20.60;99.90;;;;;;5068957;28;20056;-66
2022/06/24 07:24:38;;;;;;;15.38;4.30;;;20.60;99.90;;;;;;5069014;28;20020;-66
2022/06/24 07:27:06;;;;;;;15.38;4.53;;;20.60;99.90;;;;;;5070840;28;20039;-65
2022/06/24 07:29:35;;;;;;;13.02;4.18;;;20.70;99.90;;;;;;5068854;28;20106;-66
2022/06/24 07:32:02;;;;;;;13.77;4.40;;;20.90;99.90;;;;;;5081526;28;20078;-66
2022/06/24 07:34:30;;;;;;;16.42;4.07;;;21.20;99.90;;;;;;5071214;28;20301;-66
2022/06/24 07:37:00;;;;;;;16.55;3.80;;;21.40;99.90;;;;;;5069249;28;20032;-67
2022/06/24 07:39:26;;;;;;;11.43;3.92;;;21.50;99.90;;;;;;5068714;28;20081;-67
2022/06/24 07:41:53;;;;;;;15.18;3.85;;;21.60;99.90;;;;;;5069135;28;20032;-67
2022/06/24 07:44:19;;;;;;;11.63;3.92;;;21.70;99.90;;;;;;5068534;28;20109;-68
2022/06/24 07:46:45;;;;;;;15.30;3.55;;;21.90;99.90;;;;;;5070807;28;20111;-67
2022/06/24 07:49:11;;;;;;;6.43;3.45;;;21.80;99.90;;;;;;5068239;28;20467;-68
2022/06/24 07:51:37;;;;;;;8.32;3.72;;;21.90;99.90;;;;;;5073623;28;20040;-68
2022/06/24 07:54:05;;;;;;;16.90;3.42;;;22.00;99.90;;;;;;5088601;28;20024;-69
2022/06/24 07:59:16;;;;;;;11.23;3.42;;;22.40;99.90;;;;;;5071048;28;20043;-69
2022/06/24 08:01:41;;;;;;;12.18;3.58;;;22.40;99.90;;;;;;5066370;28;20040;-68
2022/06/24 08:04:10;;;;;;;10.52;3.28;;;22.40;99.90;;;;;;5086657;28;20036;-69
2022/06/24 08:06:42;;;;;;;7.47;3.70;;;22.30;99.90;;;;;;5076080;28;20045;-68
2022/06/24 08:09:08;;;;;;;13.73;3.85;;;22.00;99.90;;;;;;5067505;28;20032;-68
2022/06/24 08:11:36;;;;;;;14.20;4.43;;;21.70;99.90;;;;;;5081045;28;20040;-70
2022/06/24 08:14:02;;;;;;;8.20;3.83;;;21.90;99.90;;;;;;5068322;28;20461;-69
2022/06/24 08:16:28;;;;;;;10.85;3.90;;;22.00;99.90;;;;;;5069706;28;20036;-69
2022/06/24 08:18:54;;;;;;;8.75;3.80;;;22.00;99.90;;;;;;5068335;28;20036;-69
2022/06/24 08:21:21;;;;;;;8.65;3.80;;;22.10;99.90;;;;;;5067548;28;20097;-68
2022/06/24 08:23:47;;;;;;;10.07;3.78;;;22.30;99.90;;;;;;5068497;28;20125;-69
2022/06/24 08:26:13;;;;;;;14.60;3.72;;;22.40;99.90;;;;;;5067309;28;20043;-69
2022/06/24 08:28:38;;;;;;;14.88;3.95;;;22.70;99.90;;;;;;5067450;28;20033;-69
2022/06/24 08:31:04;;;;;;;8.75;3.25;;;23.00;99.90;;;;;;5067715;28;20063;-69
2022/06/24 08:33:30;;;;;;;14.35;3.70;;;23.10;99.90;;;;;;5069117;28;20472;-69
2022/06/24 08:35:55;;;;;;;10.80;3.70;;;23.20;99.90;;;;;;5067973;28;20032;-70
2022/06/24 08:38:21;;;;;;;7.75;3.28;;;23.40;99.90;;;;;;5067511;28;20606;-70
2022/06/24 08:40:48;;;;;;;10.65;3.53;;;23.50;99.90;;;;;;5068214;28;20055;-69
2022/06/24 08:43:15;;;;;;;8.75;3.85;;;23.40;99.90;;;;;;5067064;28;20040;-70
2022/06/24 08:45:41;;;;;;;11.88;3.47;;;23.40;99.90;;;;;;5071517;28;20534;-69
2022/06/24 08:48:08;;;;;;;14.13;3.83;;;23.30;99.90;;;;;;5087926;28;20032;-70
2022/06/24 08:50:34;;;;;;;8.88;3.10;;;23.40;99.90;;;;;;5078254;28;20693;-70
2022/06/24 08:53:04;;;;;;;7.82;3.63;;;23.70;99.90;;;;;;5079975;28;20038;-70
2022/06/24 08:55:39;;;;;;;9.25;2.95;;;23.70;99.90;;;;;;5071985;28;20032;-70
2022/06/24 08:58:11;;;;;;;7.57;3.30;;;23.50;99.90;;;;;;5067426;28;20128;-70
2022/06/24 09:00:37;;;;;;;10.30;3.63;;;23.60;99.90;;;;;;5067455;28;20537;-70
2022/06/24 09:03:04;;;;;;;7.47;3.10;;;23.90;99.90;;;;;;5077553;28;20480;-70
2022/06/24 09:05:30;;;;;;;6.88;3.72;;;24.10;99.90;;;;;;5086104;28;20110;-70
2022/06/24 09:08:07;;;;;;;10.10;3.50;;;24.10;99.90;;;;;;5082703;28;20024;-69
2022/06/24 09:10:35;;;;;;;9.73;3.58;;;24.10;99.90;;;;;;5081518;28;20148;-69
2022/06/24 09:13:01;;;;;;;6.15;3.08;;;23.80;99.90;;;;;;5076573;28;20032;-69
2022/06/24 09:15:27;;;;;;;10.15;3.83;;;23.80;99.90;;;;;;5071945;28;20032;-70
2022/06/24 09:17:57;;;;;;;8.85;3.40;;;23.80;99.90;;;;;;5080887;28;20038;-70
2022/06/24 09:20:33;;;;;;;5.70;2.70;;;23.90;99.90;;;;;;5090664;28;20514;-70
2022/06/24 09:23:10;;;;;;;4.88;2.80;;;24.30;99.90;;;;;;5090176;28;20068;-69
2022/06/24 09:25:46;;;;;;;7.30;2.38;;;24.20;99.90;;;;;;5071898;28;20043;-70
2022/06/24 09:28:19;;;;;;;12.45;2.60;;;24.20;99.90;;;;;;5070614;28;20036;-69
2022/06/24 09:30:45;;;;;;;4.53;2.70;;;24.20;99.90;;;;;;5071644;28;20507;-70
2022/06/24 09:33:17;;;;;;;6.18;2.58;;;24.10;99.90;;;;;;5069989;28;20115;-69
2022/06/24 09:35:43;;;;;;;9.25;2.45;;;23.90;99.90;;;;;;5071419;28;20028;-69
2022/06/24 09:38:09;;;;;;;7.05;2.60;;;23.80;99.90;;;;;;5070172;28;20487;-69
2022/06/24 09:40:35;;;;;;;7.28;2.33;;;23.60;99.90;;;;;;5071053;28;20093;-70
2022/06/24 09:43:04;;;;;;;4.45;2.20;;;23.40;99.90;;;;;;5071633;28;20032;-69
2022/06/24 09:45:50;;;;;;;5.65;2.58;;;23.00;99.90;;;;;;5071469;28;20116;-69
2022/06/24 09:48:29;;;;;;;4.55;2.38;;;22.80;99.90;;;;;;5070882;28;20028;-68
2022/06/24 09:51:00;;;;;;;8.57;2.40;;;22.80;99.90;;;;;;5085661;28;20081;-69
2022/06/24 09:53:27;;;;;;;7.10;2.85;;;22.80;99.90;;;;;;5078696;28;20033;-69
2022/06/24 09:55:54;;;;;;;5.95;2.65;;;23.10;99.90;;;;;;5077286;28;20020;-69
2022/06/24 09:58:21;;;;;;;5.70;2.42;;;23.60;99.90;;;;;;5080879;28;20032;-69
2022/06/24 10:00:48;;;;;;;7.18;2.85;;;23.70;99.90;;;;;;5078221;28;20044;-69
2022/06/24 10:03:14;;;;;;;9.10;3.22;;;23.80;99.90;;;;;;5076741;28;20032;-69
2022/06/24 10:05:45;;;;;;;11.90;2.78;;;23.70;99.90;;;;;;5081939;28;20047;-68
2022/06/24 10:08:14;;;;;;;5.65;2.65;;;23.40;99.90;;;;;;5071857;28;20409;-69
2022/06/24 10:10:53;;;;;;;6.88;2.53;;;23.30;99.90;;;;;;5070138;28;20127;-69
2022/06/24 10:13:27;;;;;;;8.75;2.72;;;23.80;99.90;;;;;;5081552;28;20059;-70
2022/06/24 10:15:56;;;;;;;6.43;2.65;;;24.10;99.90;;;;;;5090281;28;20074;-70
2022/06/24 10:18:26;;;;;;;6.82;2.22;;;24.40;99.90;;;;;;5087536;28;20416;-70
2022/06/24 10:20:55;;;;;;;;;;;24.60;99.90;;;;;;5089870;28;20028;-70
2022/06/24 10:23:42;;;;;;;7.88;2.30;;;24.50;99.90;;;;;;5087645;28;19922;-70
2022/06/24 10:26:10;;;;;;;4.07;2.15;;;24.70;99.90;;;;;;5086779;28;20039;-69
2022/06/24 10:29:02;;;;;;;8.15;2.63;;;24.90;99.90;;;;;;5084720;28;20524;-69
2022/06/24 10:31:37;;;;;;;7.68;2.00;;;24.90;99.90;;;;;;5088762;28;20521;-70
2022/06/24 10:34:03;;;;;;;6.70;2.08;;;24.70;99.90;;;;;;5092926;28;20077;-70
2022/06/24 10:36:31;;;;;;;2.95;1.52;;;24.70;99.90;;;;;;5089738;28;20024;-69
2022/06/24 10:39:10;;;;;;;2.88;1.48;;;24.90;99.90;;;;;;5083595;28;20061;-71
2022/06/24 10:41:41;;;;;;;5.37;1.40;;;25.10;99.90;;;;;;5081660;28;21332;-70
2022/06/24 10:44:29;;;;;;;1.90;1.40;;;25.40;99.90;;;;;;5090717;28;20112;-70
2022/06/24 10:47:19;;;;;;;3.28;2.03;;;25.60;99.90;;;;;;5078740;28;20036;-70
2022/06/24 10:49:54;;;;;;;4.68;2.10;;;25.40;99.90;;;;;;5078970;28;20035;-70
2022/06/24 10:52:36;;;;;;;5.15;2.00;;;25.80;99.90;;;;;;5078589;28;20040;-70
2022/06/24 10:58:04;;;;;;;5.95;2.00;;;26.30;99.90;;;;;;5088242;28;20035;-69
2022/06/24 11:00:48;;;;;;;3.55;1.60;;;26.10;99.90;;;;;;5091154;28;20115;-69
2022/06/24 11:03:23;;;;;;;4.63;1.80;;;24.90;99.90;;;;;;5080923;28;20032;-68
2022/06/24 11:05:51;;;;;;;3.85;1.77;;;24.20;99.90;;;;;;5089341;28;20181;-68
2022/06/24 11:08:25;;;;;;;3.03;1.55;;;23.90;99.90;;;;;;5090070;28;20031;-68
2022/06/24 11:10:51;;;;;;;3.72;1.63;;;23.70;99.90;;;;;;5089219;28;20436;-68
2022/06/24 11:13:22;;;;;;;3.05;1.80;;;23.80;99.90;;;;;;5090047;28;20425;-68
2022/06/24 11:15:58;;;;;;;4.78;1.90;;;24.30;99.90;;;;;;5089156;28;20031;-68
2022/06/24 11:18:28;;;;;;;7.93;1.80;;;24.70;99.90;;;;;;5084786;28;20054;-68
2022/06/24 11:20:56;;;;;;;;;;;24.90;99.90;;;;;;5095630;28;20109;-68
2022/06/24 11:23:23;;;;;;;5.45;1.77;;;25.10;99.90;;;;;;5070732;28;21837;-68
2022/06/24 11:25:52;;;;;;;4.47;2.03;;;25.00;99.90;;;;;;5069600;28;20032;-69
2022/06/24 11:28:22;;;;;;;5.95;1.70;;;25.20;99.90;;;;;;5074301;28;20036;-68
2022/06/24 11:30:50;;;;;;;9.23;2.40;;;25.00;99.90;;;;;;5073603;28;20801;-67
2022/06/24 11:33:15;;;;;;;6.85;1.73;;;25.20;99.90;;;;;;5075305;28;20434;-68
2022/06/24 11:35:41;;;;;;;8.73;2.13;;;25.20;99.90;;;;;;5081069;28;20024;-68
2022/06/24 11:38:08;;;;;;;4.20;2.33;;;25.00;99.90;;;;;;5075054;28;20123;-68
2022/06/24 11:40:35;;;;;;;10.38;2.83;;;25.40;99.90;;;;;;5077401;28;20031;-69
2022/06/24 11:43:19;;;;;;;11.18;2.67;;;25.60;99.90;;;;;;5076970;28;20039;-68
2022/06/24 11:45:47;;;;;;;8.35;2.00;;;25.40;99.90;;;;;;5080589;28;20024;-68
2022/06/24 11:48:20;;;;;;;5.75;2.22;;;25.00;99.90;;;;;;5086736;28;20034;-68
2022/06/24 11:50:47;;;;;;;8.80;2.30;;;24.80;99.90;;;;;;5083274;28;20377;-68
2022/06/24 11:53:12;;;;;;;5.45;1.92;;;25.00;99.90;;;;;;5070502;28;20035;-68
2022/06/24 11:55:40;;;;;;;5.55;2.20;;;25.30;99.90;;;;;;5076779;28;20028;-68
2022/06/24 11:58:08;;;;;;;4.53;2.13;;;25.70;99.90;;;;;;5079748;28;20056;-68
2022/06/24 12:00:38;;;;;;;4.20;2.10;;;26.10;99.90;;;;;;5092086;28;20027;-68
2022/06/24 12:03:06;;;;;;;5.38;2.10;;;26.10;99.20;;;;;;5092172;28;20499;-68
2022/06/24 12:05:33;;;;;;;4.53;2.22;;;26.30;99.90;;;;;;5090665;28;20036;-68
2022/06/24 12:08:00;;;;;;;3.40;2.00;;;26.00;99.40;;;;;;5101436;28;20039;-66
2022/06/24 12:10:26;;;;;;;7.75;2.10;;;25.90;99.00;;;;;;5088136;28;20486;-67
2022/06/24 12:13:01;;;;;;;6.93;2.25;;;25.80;98.20;;;;;;5075907;28;20115;-67
2022/06/24 12:15:41;;;;;;;5.30;2.10;;;25.40;99.80;;;;;;5083494;28;20107;-66
2022/06/24 12:18:18;;;;;;;6.72;2.40;;;24.80;99.90;;;;;;5072999;28;20024;-65
2022/06/24 12:20:55;;;;;;;6.18;2.15;;;24.60;99.90;;;;;;5072355;28;20076;-65
2022/06/24 12:23:22;;;;;;;2.92;2.05;;;24.50;99.90;;;;;;5078340;28;20051;-66
2022/06/24 12:25:49;;;;;;;6.20;2.33;;;24.50;99.90;;;;;;5070665;28;20064;-66
2022/06/24 12:28:23;;;;;;;5.53;2.25;;;24.70;99.90;;;;;;5071569;28;20748;-66
2022/06/24 12:31:05;;;;;;;7.50;2.33;;;24.80;99.90;;;;;;5068444;28;20060;-66
2022/06/24 12:33:51;;;;;;;4.60;2.53;;;24.90;99.90;;;;;;5081125;28;20035;-66
2022/06/24 12:36:20;;;;;;;5.43;2.45;;;25.10;99.90;;;;;;5069594;28;20021;-66
2022/06/24 12:38:45;;;;;;;6.57;2.50;;;25.10;99.90;;;;;;5067788;28;20677;-65
2022/06/24 12:41:16;;;;;;;5.97;2.17;;;25.00;99.90;;;;;;5077493;28;20051;-66
2022/06/24 12:43:50;;;;;;;;;;;25.00;99.90;;;;;;5074108;28;20115;-66
2022/06/24 12:46:16;;;;;;;6.88;2.28;;;24.70;99.90;;;;;;5076609;28;20376;-66
2022/06/24 12:51:26;;;;;;;6.28;2.58;;;24.30;99.90;;;;;;5071428;28;20043;-66
2022/06/24 12:53:54;;;;;;;8.25;2.47;;;24.30;99.90;;;;;;5079359;28;20024;-66
2022/06/24 12:56:20;;;;;;;12.95;2.25;;;24.40;99.90;;;;;;5092032;28;20063;-66
2022/06/24 12:58:49;;;;;;;5.85;2.22;;;24.20;99.90;;;;;;5091291;28;20043;-65
2022/06/24 13:01:14;;;;;;;6.70;2.35;;;24.10;99.90;;;;;;5091466;28;20130;-65